sensor_id;sensor_type;location;lat;lon;timestamp;temperature;humidity
40374;DHT22;26079;45.958;12.492;2023-12-20T00:01:36;0.40;99.90
40374;DHT22;26079;45.958;12.492;2023-12-20T00:04:02;0.40;99.90
40374;DHT22;26079;45.958;12.492;2023-12-20T00:06:29;0.40;99.90
40374;DHT22;26079;45.958;12.492;2023-12-20T00:09:04;0.30;99.90
40374;DHT22;26079;45.958;12.492;2023-12-20T00:11:32;0.40;99.90
40374;DHT22;26079;45.958;12.492;2023-12-20T00:13:58;0.30;99.90
40374;DHT22;26079;45.958;12.492;2023-12-20T00:16:24;0.30;99.90
40374;DHT22;26079;45.958;12.492;2023-12-20T00:18:50;0.40;99.90
40374;DHT22;26079;45.958;12.492;2023-12-20T00:21:15;0.30;99.90
40374;DHT22;26079;45.958;12.492;2023-12-20T00:23:41;0.30;99.90
40374;DHT22;26079;45.958;12.492;2023-12-20T00:26:07;0.30;99.90
40374;DHT22;26079;45.958;12.492;2023-12-20T00:28:32;0.30;99.90
40374;DHT22;26079;45.958;12.492;2023-12-20T00:30:58;0.20;99.90
40374;DHT22;26079;45.958;12.492;2023-12-20T00:33:24;0.30;99.90
40374;DHT22;26079;45.958;12.492;2023-12-20T00:35:49;0.30;99.90
40374;DHT22;26079;45.958;12.492;2023-12-20T00:38:15;0.30;99.90
40374;DHT22;26079;45.958;12.492;2023-12-20T00:40:41;0.30;99.90
40374;DHT22;26079;45.958;12.492;2023-12-20T00:43:07;0.30;99.90
40374;DHT22;26079;45.958;12.492;2023-12-20T00:45:32;0.30;99.90
40374;DHT22;26079;45.958;12.492;2023-12-20T00:47:58;0.30;99.90
40374;DHT22;26079;45.958;12.492;2023-12-20T00:50:24;0.40;99.90
40374;DHT22;26079;45.958;12.492;2023-12-20T00:52:50;0.30;99.90
40374;DHT22;26079;45.958;12.492;2023-12-20T00:55:16;0.20;99.90
40374;DHT22;26079;45.958;12.492;2023-12-20T00:57:41;0.10;99.90
40374;DHT22;26079;45.958;12.492;2023-12-20T01:00:07;0.10;99.90
40374;DHT22;26079;45.958;12.492;2023-12-20T01:02:35;0.10;99.90
40374;DHT22;26079;45.958;12.492;2023-12-20T01:05:01;0.10;99.90
40374;DHT22;26079;45.958;12.492;2023-12-20T01:07:26;0.10;99.90
40374;DHT22;26079;45.958;12.492;2023-12-20T01:09:52;0.20;99.90
40374;DHT22;26079;45.958;12.492;2023-12-20T01:12:18;0.20;99.90
40374;DHT22;26079;45.958;12.492;2023-12-20T01:14:45;0.30;99.90
40374;DHT22;26079;45.958;12.492;2023-12-20T01:17:12;0.20;99.90
40374;DHT22;26079;45.958;12.492;2023-12-20T01:19:38;0.30;99.90
40374;DHT22;26079;45.958;12.492;2023-12-20T01:22:03;0.20;99.90
40374;DHT22;26079;45.958;12.492;2023-12-20T01:24:29;0.20;99.90
40374;DHT22;26079;45.958;12.492;2023-12-20T01:26:55;0.10;99.90
40374;DHT22;26079;45.958;12.492;2023-12-20T01:29:20;0.20;99.90
40374;DHT22;26079;45.958;12.492;2023-12-20T01:31:46;0.20;99.90
40374;DHT22;26079;45.958;12.492;2023-12-20T01:34:12;0.20;99.90
40374;DHT22;26079;45.958;12.492;2023-12-20T01:36:38;0.20;99.90
40374;DHT22;26079;45.958;12.492;2023-12-20T01:39:03;0.10;99.90
40374;DHT22;26079;45.958;12.492;2023-12-20T01:41:29;0.00;99.90
40374;DHT22;26079;45.958;12.492;2023-12-20T01:43:55;0.00;99.90
40374;DHT22;26079;45.958;12.492;2023-12-20T01:46:21;0.00;99.90
40374;DHT22;26079;45.958;12.492;2023-12-20T01:48:48;-0.10;99.90
40374;DHT22;26079;45.958;12.492;2023-12-20T01:51:14;-0.10;99.90
40374;DHT22;26079;45.958;12.492;2023-12-20T01:53:40;-0.10;99.90
40374;DHT22;26079;45.958;12.492;2023-12-20T01:56:07;-0.10;99.90
40374;DHT22;26079;45.958;12.492;2023-12-20T01:58:33;-0.10;99.90
40374;DHT22;26079;45.958;12.492;2023-12-20T02:00:59;-0.10;99.90
40374;DHT22;26079;45.958;12.492;2023-12-20T02:03:25;-0.10;99.90
40374;DHT22;26079;45.958;12.492;2023-12-20T02:05:50;-0.10;99.90
40374;DHT22;26079;45.958;12.492;2023-12-20T02:08:16;-0.10;99.90
40374;DHT22;26079;45.958;12.492;2023-12-20T02:10:42;-0.10;99.90
40374;DHT22;26079;45.958;12.492;2023-12-20T02:13:08;-0.10;99.90
40374;DHT22;26079;45.958;12.492;2023-12-20T02:15:34;-0.20;99.90
40374;DHT22;26079;45.958;12.492;2023-12-20T02:18:02;-0.20;99.90
40374;DHT22;26079;45.958;12.492;2023-12-20T02:20:28;-0.20;99.90
40374;DHT22;26079;45.958;12.492;2023-12-20T02:22:53;-0.20;99.90
40374;DHT22;26079;45.958;12.492;2023-12-20T02:25:19;-0.20;99.90
40374;DHT22;26079;45.958;12.492;2023-12-20T02:27:45;-0.20;99.90
40374;DHT22;26079;45.958;12.492;2023-12-20T02:30:11;-0.20;99.90
40374;DHT22;26079;45.958;12.492;2023-12-20T02:32:36;-0.20;99.90
40374;DHT22;26079;45.958;12.492;2023-12-20T02:35:02;-0.20;99.90
40374;DHT22;26079;45.958;12.492;2023-12-20T02:37:28;-0.20;99.90
40374;DHT22;26079;45.958;12.492;2023-12-20T02:39:53;-0.20;99.90
40374;DHT22;26079;45.958;12.492;2023-12-20T02:42:19;-0.20;99.90
40374;DHT22;26079;45.958;12.492;2023-12-20T02:44:45;-0.20;99.90
40374;DHT22;26079;45.958;12.492;2023-12-20T02:47:10;-0.20;99.90
40374;DHT22;26079;45.958;12.492;2023-12-20T02:49:36;-0.20;99.90
40374;DHT22;26079;45.958;12.492;2023-12-20T02:52:02;-0.10;99.90
40374;DHT22;26079;45.958;12.492;2023-12-20T02:54:27;-0.10;99.90
40374;DHT22;26079;45.958;12.492;2023-12-20T02:56:53;0.00;99.90
40374;DHT22;26079;45.958;12.492;2023-12-20T02:59:19;0.00;99.90
40374;DHT22;26079;45.958;12.492;2023-12-20T03:01:45;0.00;99.90
40374;DHT22;26079;45.958;12.492;2023-12-20T03:04:12;0.00;99.90
40374;DHT22;26079;45.958;12.492;2023-12-20T03:06:38;0.00;99.90
40374;DHT22;26079;45.958;12.492;2023-12-20T03:09:04;0.00;99.90
40374;DHT22;26079;45.958;12.492;2023-12-20T03:11:30;0.00;99.90
40374;DHT22;26079;45.958;12.492;2023-12-20T03:13:56;0.10;99.90
40374;DHT22;26079;45.958;12.492;2023-12-20T03:16:22;0.10;99.90
40374;DHT22;26079;45.958;12.492;2023-12-20T03:18:48;0.10;99.90
40374;DHT22;26079;45.958;12.492;2023-12-20T03:21:14;0.10;99.90
40374;DHT22;26079;45.958;12.492;2023-12-20T03:23:40;0.10;99.90
40374;DHT22;26079;45.958;12.492;2023-12-20T03:26:09;0.10;99.90
40374;DHT22;26079;45.958;12.492;2023-12-20T03:28:36;0.20;99.90
40374;DHT22;26079;45.958;12.492;2023-12-20T03:31:02;0.20;99.90
40374;DHT22;26079;45.958;12.492;2023-12-20T03:33:28;0.10;99.90
40374;DHT22;26079;45.958;12.492;2023-12-20T03:35:54;0.10;99.90
40374;DHT22;26079;45.958;12.492;2023-12-20T03:38:20;0.10;99.90
40374;DHT22;26079;45.958;12.492;2023-12-20T03:40:45;0.00;99.90
40374;DHT22;26079;45.958;12.492;2023-12-20T03:43:11;0.00;99.90
40374;DHT22;26079;45.958;12.492;2023-12-20T03:45:37;0.00;99.90
40374;DHT22;26079;45.958;12.492;2023-12-20T03:48:03;-0.10;99.90
40374;DHT22;26079;45.958;12.492;2023-12-20T03:50:29;-0.10;99.90
40374;DHT22;26079;45.958;12.492;2023-12-20T03:52:54;-0.10;99.90
40374;DHT22;26079;45.958;12.492;2023-12-20T03:55:20;-0.20;99.90
40374;DHT22;26079;45.958;12.492;2023-12-20T03:57:46;-0.20;99.90
40374;DHT22;26079;45.958;12.492;2023-12-20T04:00:12;-0.20;99.90
40374;DHT22;26079;45.958;12.492;2023-12-20T04:02:38;-0.20;99.90
40374;DHT22;26079;45.958;12.492;2023-12-20T04:05:05;-0.20;99.90
40374;DHT22;26079;45.958;12.492;2023-12-20T04:07:31;-0.20;99.90
40374;DHT22;26079;45.958;12.492;2023-12-20T04:09:57;-0.20;99.90
40374;DHT22;26079;45.958;12.492;2023-12-20T04:12:23;-0.20;99.90
40374;DHT22;26079;45.958;12.492;2023-12-20T04:14:48;-0.20;99.90
40374;DHT22;26079;45.958;12.492;2023-12-20T04:17:15;-0.20;99.90
40374;DHT22;26079;45.958;12.492;2023-12-20T04:19:44;-0.20;99.90
40374;DHT22;26079;45.958;12.492;2023-12-20T04:22:10;-0.20;99.90
40374;DHT22;26079;45.958;12.492;2023-12-20T04:24:35;-0.20;99.90
40374;DHT22;26079;45.958;12.492;2023-12-20T04:27:01;-0.20;99.90
40374;DHT22;26079;45.958;12.492;2023-12-20T04:29:27;-0.10;99.90
40374;DHT22;26079;45.958;12.492;2023-12-20T04:31:53;-0.10;99.90
40374;DHT22;26079;45.958;12.492;2023-12-20T04:34:18;0.00;99.90
40374;DHT22;26079;45.958;12.492;2023-12-20T04:36:44;0.00;99.90
40374;DHT22;26079;45.958;12.492;2023-12-20T04:39:12;0.00;99.90
40374;DHT22;26079;45.958;12.492;2023-12-20T04:41:38;0.10;99.90
40374;DHT22;26079;45.958;12.492;2023-12-20T04:44:04;0.10;99.90
40374;DHT22;26079;45.958;12.492;2023-12-20T04:46:30;0.10;99.90
40374;DHT22;26079;45.958;12.492;2023-12-20T04:48:55;0.10;99.90
40374;DHT22;26079;45.958;12.492;2023-12-20T04:51:21;0.20;99.90
40374;DHT22;26079;45.958;12.492;2023-12-20T04:53:47;0.20;99.90
40374;DHT22;26079;45.958;12.492;2023-12-20T04:56:19;0.30;99.90
40374;DHT22;26079;45.958;12.492;2023-12-20T04:58:44;0.30;99.90
40374;DHT22;26079;45.958;12.492;2023-12-20T05:01:10;0.40;99.90
40374;DHT22;26079;45.958;12.492;2023-12-20T05:03:36;0.50;99.90
40374;DHT22;26079;45.958;12.492;2023-12-20T05:06:01;0.60;99.90
40374;DHT22;26079;45.958;12.492;2023-12-20T05:08:27;0.60;99.90
40374;DHT22;26079;45.958;12.492;2023-12-20T05:10:54;0.70;99.90
40374;DHT22;26079;45.958;12.492;2023-12-20T05:13:20;0.70;99.90
40374;DHT22;26079;45.958;12.492;2023-12-20T05:15:46;0.70;99.90
40374;DHT22;26079;45.958;12.492;2023-12-20T05:18:12;0.80;99.90
40374;DHT22;26079;45.958;12.492;2023-12-20T05:20:38;0.80;99.90
40374;DHT22;26079;45.958;12.492;2023-12-20T05:23:04;0.90;99.90
40374;DHT22;26079;45.958;12.492;2023-12-20T05:25:30;0.90;99.90
40374;DHT22;26079;45.958;12.492;2023-12-20T05:27:56;0.90;99.90
40374;DHT22;26079;45.958;12.492;2023-12-20T05:30:21;0.90;99.90
40374;DHT22;26079;45.958;12.492;2023-12-20T05:32:47;0.80;99.90
40374;DHT22;26079;45.958;12.492;2023-12-20T05:35:13;0.90;99.90
40374;DHT22;26079;45.958;12.492;2023-12-20T05:37:39;0.90;99.90
40374;DHT22;26079;45.958;12.492;2023-12-20T05:40:05;0.90;99.90
40374;DHT22;26079;45.958;12.492;2023-12-20T05:42:31;0.90;99.90
40374;DHT22;26079;45.958;12.492;2023-12-20T05:44:56;0.90;99.90
40374;DHT22;26079;45.958;12.492;2023-12-20T05:47:22;0.90;99.90
40374;DHT22;26079;45.958;12.492;2023-12-20T05:49:48;0.90;99.90
40374;DHT22;26079;45.958;12.492;2023-12-20T05:52:13;0.90;99.90
40374;DHT22;26079;45.958;12.492;2023-12-20T05:54:40;0.90;99.90
40374;DHT22;26079;45.958;12.492;2023-12-20T05:57:05;0.90;99.90
40374;DHT22;26079;45.958;12.492;2023-12-20T05:59:31;0.90;99.90
40374;DHT22;26079;45.958;12.492;2023-12-20T06:01:57;1.00;99.90
40374;DHT22;26079;45.958;12.492;2023-12-20T06:04:22;1.00;99.90
40374;DHT22;26079;45.958;12.492;2023-12-20T06:06:48;1.00;99.90
40374;DHT22;26079;45.958;12.492;2023-12-20T06:09:14;1.00;99.90
40374;DHT22;26079;45.958;12.492;2023-12-20T06:11:40;1.00;99.90
40374;DHT22;26079;45.958;12.492;2023-12-20T06:14:06;0.90;99.90
40374;DHT22;26079;45.958;12.492;2023-12-20T06:16:32;0.90;99.90
40374;DHT22;26079;45.958;12.492;2023-12-20T06:18:57;1.00;99.90
40374;DHT22;26079;45.958;12.492;2023-12-20T06:21:23;0.90;99.90
40374;DHT22;26079;45.958;12.492;2023-12-20T06:23:49;0.90;99.90
40374;DHT22;26079;45.958;12.492;2023-12-20T06:26:14;1.00;99.90
40374;DHT22;26079;45.958;12.492;2023-12-20T06:28:40;0.90;99.90
40374;DHT22;26079;45.958;12.492;2023-12-20T06:31:05;1.00;99.90
40374;DHT22;26079;45.958;12.492;2023-12-20T06:33:31;1.00;99.90
40374;DHT22;26079;45.958;12.492;2023-12-20T06:35:57;1.10;99.90
40374;DHT22;26079;45.958;12.492;2023-12-20T06:38:23;1.20;99.90
40374;DHT22;26079;45.958;12.492;2023-12-20T06:40:48;1.20;99.90
40374;DHT22;26079;45.958;12.492;2023-12-20T06:43:14;1.30;99.90
40374;DHT22;26079;45.958;12.492;2023-12-20T06:45:40;1.30;99.90
40374;DHT22;26079;45.958;12.492;2023-12-20T06:48:06;1.30;99.90
40374;DHT22;26079;45.958;12.492;2023-12-20T06:50:32;1.40;99.90
40374;DHT22;26079;45.958;12.492;2023-12-20T06:52:58;1.40;99.90
40374;DHT22;26079;45.958;12.492;2023-12-20T06:55:23;1.50;99.90
40374;DHT22;26079;45.958;12.492;2023-12-20T06:57:49;1.50;99.90
40374;DHT22;26079;45.958;12.492;2023-12-20T07:00:15;1.50;99.90
40374;DHT22;26079;45.958;12.492;2023-12-20T07:02:41;1.60;99.90
40374;DHT22;26079;45.958;12.492;2023-12-20T07:05:07;1.60;99.90
40374;DHT22;26079;45.958;12.492;2023-12-20T07:07:32;1.70;99.90
40374;DHT22;26079;45.958;12.492;2023-12-20T07:09:58;1.70;99.90
40374;DHT22;26079;45.958;12.492;2023-12-20T07:12:24;1.80;99.90
40374;DHT22;26079;45.958;12.492;2023-12-20T07:14:49;1.80;99.90
40374;DHT22;26079;45.958;12.492;2023-12-20T07:17:15;1.80;99.90
40374;DHT22;26079;45.958;12.492;2023-12-20T07:19:41;1.80;99.90
40374;DHT22;26079;45.958;12.492;2023-12-20T07:22:07;1.90;99.90
40374;DHT22;26079;45.958;12.492;2023-12-20T07:24:33;1.90;99.90
40374;DHT22;26079;45.958;12.492;2023-12-20T07:27:00;1.80;99.90
40374;DHT22;26079;45.958;12.492;2023-12-20T07:29:25;1.80;99.90
40374;DHT22;26079;45.958;12.492;2023-12-20T07:31:52;1.80;99.90
40374;DHT22;26079;45.958;12.492;2023-12-20T07:34:19;1.90;99.90
40374;DHT22;26079;45.958;12.492;2023-12-20T07:36:45;1.90;99.90
40374;DHT22;26079;45.958;12.492;2023-12-20T07:39:11;1.90;99.90
40374;DHT22;26079;45.958;12.492;2023-12-20T07:41:36;1.90;99.90
40374;DHT22;26079;45.958;12.492;2023-12-20T07:44:04;1.90;99.90
40374;DHT22;26079;45.958;12.492;2023-12-20T07:46:30;2.00;99.90
40374;DHT22;26079;45.958;12.492;2023-12-20T07:48:55;2.10;99.90
40374;DHT22;26079;45.958;12.492;2023-12-20T07:51:21;2.20;99.90
40374;DHT22;26079;45.958;12.492;2023-12-20T07:53:47;2.30;99.90
40374;DHT22;26079;45.958;12.492;2023-12-20T07:56:17;2.30;99.90
40374;DHT22;26079;45.958;12.492;2023-12-20T07:58:43;2.40;99.90
40374;DHT22;26079;45.958;12.492;2023-12-20T08:01:10;2.40;99.90
40374;DHT22;26079;45.958;12.492;2023-12-20T08:03:36;2.50;99.90
40374;DHT22;26079;45.958;12.492;2023-12-20T08:06:02;2.50;99.90
40374;DHT22;26079;45.958;12.492;2023-12-20T08:08:28;2.50;99.90
40374;DHT22;26079;45.958;12.492;2023-12-20T08:10:54;2.40;99.90
40374;DHT22;26079;45.958;12.492;2023-12-20T08:13:19;2.40;99.90
40374;DHT22;26079;45.958;12.492;2023-12-20T08:15:45;2.40;99.90
40374;DHT22;26079;45.958;12.492;2023-12-20T08:18:11;2.40;99.90
40374;DHT22;26079;45.958;12.492;2023-12-20T08:20:36;2.40;99.90
40374;DHT22;26079;45.958;12.492;2023-12-20T08:23:02;2.50;99.90
40374;DHT22;26079;45.958;12.492;2023-12-20T08:25:28;2.50;99.90
40374;DHT22;26079;45.958;12.492;2023-12-20T08:27:53;2.60;99.90
40374;DHT22;26079;45.958;12.492;2023-12-20T08:30:19;2.60;99.90
40374;DHT22;26079;45.958;12.492;2023-12-20T08:32:48;2.60;99.90
40374;DHT22;26079;45.958;12.492;2023-12-20T08:35:14;2.60;99.90
40374;DHT22;26079;45.958;12.492;2023-12-20T08:37:39;2.60;99.90
40374;DHT22;26079;45.958;12.492;2023-12-20T08:40:06;2.70;99.90
40374;DHT22;26079;45.958;12.492;2023-12-20T08:42:31;2.80;99.90
40374;DHT22;26079;45.958;12.492;2023-12-20T08:44:58;2.80;99.90
40374;DHT22;26079;45.958;12.492;2023-12-20T08:47:26;2.90;99.90
40374;DHT22;26079;45.958;12.492;2023-12-20T08:49:52;2.90;99.90
40374;DHT22;26079;45.958;12.492;2023-12-20T08:52:22;2.90;99.90
40374;DHT22;26079;45.958;12.492;2023-12-20T08:54:52;3.00;99.90
40374;DHT22;26079;45.958;12.492;2023-12-20T08:57:20;3.10;99.90
40374;DHT22;26079;45.958;12.492;2023-12-20T08:59:47;3.10;99.90
40374;DHT22;26079;45.958;12.492;2023-12-20T09:02:13;3.20;99.90
40374;DHT22;26079;45.958;12.492;2023-12-20T09:04:39;3.30;99.90
40374;DHT22;26079;45.958;12.492;2023-12-20T09:07:05;3.30;99.90
40374;DHT22;26079;45.958;12.492;2023-12-20T09:09:31;3.40;99.90
40374;DHT22;26079;45.958;12.492;2023-12-20T09:11:58;3.50;99.90
40374;DHT22;26079;45.958;12.492;2023-12-20T09:14:23;3.60;99.90
40374;DHT22;26079;45.958;12.492;2023-12-20T09:16:49;3.70;99.90
40374;DHT22;26079;45.958;12.492;2023-12-20T09:19:17;3.70;99.90
40374;DHT22;26079;45.958;12.492;2023-12-20T09:21:43;3.60;99.90
40374;DHT22;26079;45.958;12.492;2023-12-20T09:24:09;3.60;99.90
40374;DHT22;26079;45.958;12.492;2023-12-20T09:26:34;3.70;99.90
40374;DHT22;26079;45.958;12.492;2023-12-20T09:29:00;3.80;99.90
40374;DHT22;26079;45.958;12.492;2023-12-20T09:31:26;3.90;99.90
40374;DHT22;26079;45.958;12.492;2023-12-20T09:33:52;4.00;99.90
40374;DHT22;26079;45.958;12.492;2023-12-20T09:36:18;4.00;99.90
40374;DHT22;26079;45.958;12.492;2023-12-20T09:38:43;4.10;99.90
40374;DHT22;26079;45.958;12.492;2023-12-20T09:41:09;4.00;99.90
40374;DHT22;26079;45.958;12.492;2023-12-20T09:43:38;4.00;99.90
40374;DHT22;26079;45.958;12.492;2023-12-20T09:46:06;4.10;99.90
40374;DHT22;26079;45.958;12.492;2023-12-20T09:48:33;4.10;99.90
40374;DHT22;26079;45.958;12.492;2023-12-20T09:50:59;4.20;99.90
40374;DHT22;26079;45.958;12.492;2023-12-20T09:53:25;4.30;99.90
40374;DHT22;26079;45.958;12.492;2023-12-20T09:56:00;4.30;99.90
40374;DHT22;26079;45.958;12.492;2023-12-20T09:58:27;4.50;99.90
40374;DHT22;26079;45.958;12.492;2023-12-20T10:00:53;4.60;99.90
40374;DHT22;26079;45.958;12.492;2023-12-20T10:03:24;4.70;99.90
40374;DHT22;26079;45.958;12.492;2023-12-20T10:05:53;4.80;99.90
40374;DHT22;26079;45.958;12.492;2023-12-20T10:08:21;4.90;99.90
40374;DHT22;26079;45.958;12.492;2023-12-20T10:10:48;5.10;99.90
40374;DHT22;26079;45.958;12.492;2023-12-20T10:13:15;5.20;99.90
40374;DHT22;26079;45.958;12.492;2023-12-20T10:15:41;5.30;99.90
40374;DHT22;26079;45.958;12.492;2023-12-20T10:18:07;5.40;99.90
40374;DHT22;26079;45.958;12.492;2023-12-20T10:20:33;5.50;99.90
40374;DHT22;26079;45.958;12.492;2023-12-20T10:23:00;5.50;99.90
40374;DHT22;26079;45.958;12.492;2023-12-20T10:25:26;5.60;99.90
40374;DHT22;26079;45.958;12.492;2023-12-20T10:28:14;5.70;99.90
40374;DHT22;26079;45.958;12.492;2023-12-20T10:30:42;5.80;99.90
40374;DHT22;26079;45.958;12.492;2023-12-20T10:33:09;6.00;99.90
40374;DHT22;26079;45.958;12.492;2023-12-20T10:35:39;6.10;99.90
40374;DHT22;26079;45.958;12.492;2023-12-20T10:38:06;6.30;99.90
40374;DHT22;26079;45.958;12.492;2023-12-20T10:40:36;6.50;99.90
40374;DHT22;26079;45.958;12.492;2023-12-20T10:43:03;6.60;99.90
40374;DHT22;26079;45.958;12.492;2023-12-20T10:45:28;6.80;99.90
40374;DHT22;26079;45.958;12.492;2023-12-20T10:47:55;7.00;99.90
40374;DHT22;26079;45.958;12.492;2023-12-20T10:50:21;7.20;99.90
40374;DHT22;26079;45.958;12.492;2023-12-20T10:52:47;7.40;99.40
40374;DHT22;26079;45.958;12.492;2023-12-20T10:55:14;7.60;99.70
40374;DHT22;26079;45.958;12.492;2023-12-20T10:57:40;7.70;99.10
40374;DHT22;26079;45.958;12.492;2023-12-20T11:00:08;7.80;98.30
40374;DHT22;26079;45.958;12.492;2023-12-20T11:02:39;8.00;97.90
40374;DHT22;26079;45.958;12.492;2023-12-20T11:08:06;8.40;98.20
40374;DHT22;26079;45.958;12.492;2023-12-20T11:10:55;8.50;97.70
40374;DHT22;26079;45.958;12.492;2023-12-20T11:13:36;8.60;96.40
40374;DHT22;26079;45.958;12.492;2023-12-20T11:16:03;8.70;97.80
40374;DHT22;26079;45.958;12.492;2023-12-20T11:18:30;8.80;98.50
40374;DHT22;26079;45.958;12.492;2023-12-20T11:21:06;8.80;98.20
40374;DHT22;26079;45.958;12.492;2023-12-20T11:23:32;8.90;98.00
40374;DHT22;26079;45.958;12.492;2023-12-20T11:26:00;9.00;96.40
40374;DHT22;26079;45.958;12.492;2023-12-20T11:28:27;9.10;94.20
40374;DHT22;26079;45.958;12.492;2023-12-20T11:30:54;9.10;93.80
40374;DHT22;26079;45.958;12.492;2023-12-20T11:33:31;9.20;93.70
40374;DHT22;26079;45.958;12.492;2023-12-20T11:35:58;9.20;94.20
40374;DHT22;26079;45.958;12.492;2023-12-20T11:38:25;9.40;94.70
40374;DHT22;26079;45.958;12.492;2023-12-20T11:40:53;9.50;95.70
40374;DHT22;26079;45.958;12.492;2023-12-20T11:43:34;9.50;94.90
40374;DHT22;26079;45.958;12.492;2023-12-20T11:46:07;9.60;95.90
40374;DHT22;26079;45.958;12.492;2023-12-20T11:48:39;9.60;96.70
40374;DHT22;26079;45.958;12.492;2023-12-20T11:51:12;9.70;96.70
40374;DHT22;26079;45.958;12.492;2023-12-20T11:53:39;9.80;97.20
40374;DHT22;26079;45.958;12.492;2023-12-20T11:56:08;9.90;97.00
40374;DHT22;26079;45.958;12.492;2023-12-20T11:58:35;9.90;96.40
40374;DHT22;26079;45.958;12.492;2023-12-20T12:01:01;9.90;96.80
40374;DHT22;26079;45.958;12.492;2023-12-20T12:03:30;9.80;96.70
40374;DHT22;26079;45.958;12.492;2023-12-20T12:05:55;9.80;96.40
40374;DHT22;26079;45.958;12.492;2023-12-20T12:08:21;9.80;96.50
40374;DHT22;26079;45.958;12.492;2023-12-20T12:10:47;9.80;97.00
40374;DHT22;26079;45.958;12.492;2023-12-20T12:13:13;9.70;97.40
40374;DHT22;26079;45.958;12.492;2023-12-20T12:15:40;9.70;97.60
40374;DHT22;26079;45.958;12.492;2023-12-20T12:18:07;9.70;97.90
40374;DHT22;26079;45.958;12.492;2023-12-20T12:20:33;9.60;98.30
40374;DHT22;26079;45.958;12.492;2023-12-20T12:23:05;9.60;97.80
40374;DHT22;26079;45.958;12.492;2023-12-20T12:25:34;9.60;97.50
40374;DHT22;26079;45.958;12.492;2023-12-20T12:28:00;9.60;97.50
40374;DHT22;26079;45.958;12.492;2023-12-20T12:30:26;9.60;97.70
40374;DHT22;26079;45.958;12.492;2023-12-20T12:32:52;9.60;98.20
40374;DHT22;26079;45.958;12.492;2023-12-20T12:35:19;9.60;96.90
40374;DHT22;26079;45.958;12.492;2023-12-20T12:37:45;9.60;96.00
40374;DHT22;26079;45.958;12.492;2023-12-20T12:40:16;9.60;93.70
40374;DHT22;26079;45.958;12.492;2023-12-20T12:42:43;9.70;92.80
40374;DHT22;26079;45.958;12.492;2023-12-20T12:45:10;9.70;92.00
40374;DHT22;26079;45.958;12.492;2023-12-20T12:47:37;9.70;92.00
40374;DHT22;26079;45.958;12.492;2023-12-20T12:50:03;9.70;91.40
40374;DHT22;26079;45.958;12.492;2023-12-20T12:52:30;9.70;92.10
40374;DHT22;26079;45.958;12.492;2023-12-20T12:54:56;9.70;91.80
40374;DHT22;26079;45.958;12.492;2023-12-20T12:57:22;9.70;91.60
40374;DHT22;26079;45.958;12.492;2023-12-20T12:59:47;9.70;91.70
40374;DHT22;26079;45.958;12.492;2023-12-20T13:02:13;9.60;92.20
40374;DHT22;26079;45.958;12.492;2023-12-20T13:04:42;9.60;91.80
40374;DHT22;26079;45.958;12.492;2023-12-20T13:07:09;9.60;92.30
40374;DHT22;26079;45.958;12.492;2023-12-20T13:09:39;9.60;93.00
40374;DHT22;26079;45.958;12.492;2023-12-20T13:12:06;9.60;92.40
40374;DHT22;26079;45.958;12.492;2023-12-20T13:14:34;9.60;92.80
40374;DHT22;26079;45.958;12.492;2023-12-20T13:17:00;9.60;92.50
40374;DHT22;26079;45.958;12.492;2023-12-20T13:19:26;9.60;92.60
40374;DHT22;26079;45.958;12.492;2023-12-20T13:21:53;9.70;92.90
40374;DHT22;26079;45.958;12.492;2023-12-20T13:24:19;9.60;93.30
40374;DHT22;26079;45.958;12.492;2023-12-20T13:26:44;9.60;94.10
40374;DHT22;26079;45.958;12.492;2023-12-20T13:29:10;9.50;94.80
40374;DHT22;26079;45.958;12.492;2023-12-20T13:31:36;9.50;95.00
40374;DHT22;26079;45.958;12.492;2023-12-20T13:34:02;9.40;95.70
40374;DHT22;26079;45.958;12.492;2023-12-20T13:36:28;9.30;96.80
40374;DHT22;26079;45.958;12.492;2023-12-20T13:38:54;9.20;96.80
40374;DHT22;26079;45.958;12.492;2023-12-20T13:41:20;9.20;96.80
40374;DHT22;26079;45.958;12.492;2023-12-20T13:43:45;9.10;97.10
40374;DHT22;26079;45.958;12.492;2023-12-20T13:46:11;9.20;97.20
40374;DHT22;26079;45.958;12.492;2023-12-20T13:48:37;9.30;95.60
40374;DHT22;26079;45.958;12.492;2023-12-20T13:51:03;9.50;95.40
40374;DHT22;26079;45.958;12.492;2023-12-20T13:53:29;9.50;95.00
40374;DHT22;26079;45.958;12.492;2023-12-20T13:55:55;9.50;95.50
40374;DHT22;26079;45.958;12.492;2023-12-20T13:58:20;9.40;95.60
40374;DHT22;26079;45.958;12.492;2023-12-20T14:00:46;9.30;96.70
40374;DHT22;26079;45.958;12.492;2023-12-20T14:03:12;9.20;96.90
40374;DHT22;26079;45.958;12.492;2023-12-20T14:05:37;9.10;96.90
40374;DHT22;26079;45.958;12.492;2023-12-20T14:08:03;9.00;97.10
40374;DHT22;26079;45.958;12.492;2023-12-20T14:10:29;8.90;97.50
40374;DHT22;26079;45.958;12.492;2023-12-20T14:12:55;9.00;97.40
40374;DHT22;26079;45.958;12.492;2023-12-20T14:15:21;9.00;97.90
40374;DHT22;26079;45.958;12.492;2023-12-20T14:17:47;9.00;98.40
40374;DHT22;26079;45.958;12.492;2023-12-20T14:20:13;8.90;98.80
40374;DHT22;26079;45.958;12.492;2023-12-20T14:22:38;8.80;98.70
40374;DHT22;26079;45.958;12.492;2023-12-20T14:25:11;8.70;99.80
40374;DHT22;26079;45.958;12.492;2023-12-20T14:27:38;8.70;99.60
40374;DHT22;26079;45.958;12.492;2023-12-20T14:30:04;8.60;99.90
40374;DHT22;26079;45.958;12.492;2023-12-20T14:32:31;8.50;99.90
40374;DHT22;26079;45.958;12.492;2023-12-20T14:34:57;8.50;99.90
40374;DHT22;26079;45.958;12.492;2023-12-20T14:37:23;8.60;99.90
40374;DHT22;26079;45.958;12.492;2023-12-20T14:39:48;8.70;99.80
40374;DHT22;26079;45.958;12.492;2023-12-20T14:42:14;8.70;99.90
40374;DHT22;26079;45.958;12.492;2023-12-20T14:44:40;8.60;99.90
40374;DHT22;26079;45.958;12.492;2023-12-20T14:47:06;8.50;99.90
40374;DHT22;26079;45.958;12.492;2023-12-20T14:49:32;8.30;99.90
40374;DHT22;26079;45.958;12.492;2023-12-20T14:51:58;8.10;99.90
40374;DHT22;26079;45.958;12.492;2023-12-20T14:54:25;8.10;99.90
40374;DHT22;26079;45.958;12.492;2023-12-20T14:56:50;8.00;99.90
40374;DHT22;26079;45.958;12.492;2023-12-20T14:59:16;7.80;99.90
40374;DHT22;26079;45.958;12.492;2023-12-20T15:01:43;7.70;99.90
40374;DHT22;26079;45.958;12.492;2023-12-20T15:04:09;7.50;99.90
40374;DHT22;26079;45.958;12.492;2023-12-20T15:06:36;7.40;99.90
40374;DHT22;26079;45.958;12.492;2023-12-20T15:09:02;7.30;99.90
40374;DHT22;26079;45.958;12.492;2023-12-20T15:11:30;7.10;99.90
40374;DHT22;26079;45.958;12.492;2023-12-20T15:13:56;7.00;99.90
40374;DHT22;26079;45.958;12.492;2023-12-20T15:16:23;6.90;99.90
40374;DHT22;26079;45.958;12.492;2023-12-20T15:18:49;6.90;99.90
40374;DHT22;26079;45.958;12.492;2023-12-20T15:21:15;6.90;99.90
40374;DHT22;26079;45.958;12.492;2023-12-20T15:23:41;6.70;99.90
40374;DHT22;26079;45.958;12.492;2023-12-20T15:26:21;6.50;99.90
40374;DHT22;26079;45.958;12.492;2023-12-20T15:28:47;6.30;99.90